Hutchinson County Airport - Borger, Texas, United States - FAA: BGD - ICAO: KBGD - IATA: BGD

 
  Longest Runway: 6,300 feet   Approach Types:    Customs Landing Rights Airport: No   Port of Entry: No

Local Forecast

Overnight (6/1): Showers and thunderstorms likely. Cloudy, with a low around 60. North northeast wind around 5 mph. Chance of precipitation is 60%.

Wednesday (6/1): A 40 percent chance of showers and thunderstorms. Cloudy, with a high near 74. Northeast wind 5 to 10 mph.

Wednesday Night (6/1): A 40 percent chance of showers and thunderstorms. Mostly cloudy, with a low around 59. East northeast wind 5 to 15 mph.

Thursday (6/2): A 20 percent chance of showers and thunderstorms before 1pm. Partly sunny, with a high near 77. Northeast wind 5 to 10 mph.

Thursday Night (6/2): Partly cloudy, with a low around 59. East northeast wind 5 to 10 mph becoming north after midnight.

Friday (6/3): Sunny, with a high near 82. Northwest wind around 5 mph becoming east northeast in the afternoon.

Friday Night (6/3): Mostly clear, with a low around 60. East wind 5 to 10 mph becoming southwest after midnight.



Current Weather (METAR)

2016/06/01 04:51 KBGD 010451Z AUTO 11008KT 10SM CLR 19/14 A3002 RMK AO2 SLP132 T01890139 $

BORGER HUTCHINSON CO AIRPORT , TX, United States (KBGD) 35-42N 101-24W 927M Jun 01, 2016 - 12:51 AM EDT / 2016.06.01 0451 UTC Wind: from the ESE (110 degrees) at 9 MPH (8 KT):0 Visibility: 10 mile(s):0 Sky conditions: clear Temperature: 66.0 F (18.9 C) Dew Point: 57.0 F (13.9 C) Relative Humidity: 72% Pressure (altimeter): 30.02 in. Hg (1016 hPa) ob: KBGD 010451Z AUTO 11008KT 10SM CLR 19/14 A3002 RMK AO2 SLP132 T01890139 cycle: 5

Terminal Forecast (TAF)